createdAt,value
2019-04-20T00:00:00.746Z,1027.39
2019-04-20T00:00:56.810Z,1027.37
2019-04-20T00:02:03.524Z,1027.37
2019-04-20T00:02:58.508Z,1027.36
2019-04-20T00:04:57.040Z,1027.34
2019-04-20T00:05:57.285Z,1027.31
2019-04-20T00:06:57.562Z,1027.31
2019-04-20T00:07:57.099Z,1027.3
2019-04-20T00:08:59.677Z,1027.28
2019-04-20T00:10:03.053Z,1027.27
2019-04-20T00:11:03.931Z,1027.3
2019-04-20T00:12:06.671Z,1027.26
2019-04-20T00:13:23.891Z,1027.34
2019-04-20T00:14:28.812Z,1027.36
2019-04-20T00:15:24.462Z,1027.31
2019-04-20T00:16:25.151Z,1027.32
2019-04-20T00:17:25.451Z,1027.3
2019-04-20T00:18:25.619Z,1027.27
2019-04-20T00:19:31.796Z,1027.25
2019-04-20T00:20:29.079Z,1027.26
2019-04-20T00:21:24.769Z,1027.23
2019-04-20T00:22:31.282Z,1027.25
2019-04-20T00:24:28.939Z,1027.24
2019-04-20T00:25:38.487Z,1027.24
2019-04-20T00:27:31.139Z,1027.23
2019-04-20T00:29:34.985Z,1027.18
2019-04-20T00:31:39.830Z,1027.19
2019-04-20T00:34:28.195Z,1027.17
2019-04-20T00:35:21.504Z,1027.18
2019-04-20T00:36:22.188Z,1027.17
2019-04-20T00:37:21.543Z,1027.18
2019-04-20T00:38:23.507Z,1027.13
2019-04-20T00:40:21.600Z,1027.11
2019-04-20T00:41:22.840Z,1027.1
2019-04-20T00:42:30.045Z,1027.12
2019-04-20T00:43:27.829Z,1027.1
2019-04-20T00:44:25.030Z,1027.1
2019-04-20T00:45:27.147Z,1027.08
2019-04-20T00:46:29.110Z,1027.12
2019-04-20T00:47:54.134Z,1027.09
2019-04-20T00:49:04.689Z,1027.07
2019-04-20T00:51:02.819Z,1027.05
2019-04-20T00:53:06.607Z,1027.06
2019-04-20T00:53:56.978Z,1027.07
2019-04-20T00:55:54.968Z,1027
2019-04-20T00:57:05.667Z,1026.97
2019-04-20T00:58:11.475Z,1027.02
2019-04-20T00:59:51.282Z,1027
2019-04-20T01:02:08.775Z,1027.02
2019-04-20T01:05:58.008Z,1027.02
2019-04-20T01:07:32.498Z,1027.04
2019-04-20T01:08:23.309Z,1026.99
2019-04-20T01:09:22.391Z,1027.03
2019-04-20T01:10:23.537Z,1027.02
2019-04-20T01:11:28.883Z,1027.02
2019-04-20T01:12:26.020Z,1026.96
2019-04-20T01:13:23.768Z,1026.94
2019-04-20T01:14:27.123Z,1026.96
2019-04-20T01:15:32.059Z,1026.94
2019-04-20T01:16:46.892Z,1026.96
2019-04-20T01:17:41.446Z,1026.94
2019-04-20T01:18:43.685Z,1026.94
2019-04-20T01:19:40.544Z,1026.9
2019-04-20T01:20:41.060Z,1026.93
2019-04-20T01:21:42.925Z,1026.9
2019-04-20T01:22:48.036Z,1026.88
2019-04-20T01:23:47.917Z,1026.89
2019-04-20T01:24:45.304Z,1026.85
2019-04-20T01:25:43.679Z,1026.82
2019-04-20T01:26:43.287Z,1026.83
2019-04-20T01:28:01.738Z,1026.84
2019-04-20T01:29:38.478Z,1026.84
2019-04-20T01:30:37.466Z,1026.84
2019-04-20T01:31:55.507Z,1026.8
2019-04-20T01:33:27.764Z,1026.77
2019-04-20T01:34:54.992Z,1026.8
2019-04-20T01:36:45.581Z,1026.75
2019-04-20T01:38:34.059Z,1026.75
2019-04-20T01:39:44.187Z,1026.78
2019-04-20T01:40:38.118Z,1026.77
2019-04-20T01:42:38.282Z,1026.78
2019-04-20T01:43:37.655Z,1026.76
2019-04-20T01:44:42.336Z,1026.76
2019-04-20T01:45:40.849Z,1026.74
2019-04-20T01:46:39.034Z,1026.76
2019-04-20T01:47:43.876Z,1026.72
2019-04-20T01:48:39.879Z,1026.75
2019-04-20T01:49:38.917Z,1026.76
2019-04-20T01:50:43.463Z,1026.75
2019-04-20T01:51:52.332Z,1026.76
2019-04-20T01:53:09.867Z,1026.75
2019-04-20T01:55:04.583Z,1026.72
2019-04-20T01:56:43.309Z,1026.73
2019-04-20T01:58:04.721Z,1026.72
2019-04-20T01:59:51.172Z,1026.73
2019-04-20T02:00:41.877Z,1026.74
2019-04-20T02:01:41.140Z,1026.71
2019-04-20T02:02:44.748Z,1026.73
2019-04-20T02:03:43.693Z,1026.71
2019-04-20T02:04:43.883Z,1026.73
2019-04-20T02:05:40.645Z,1026.71
2019-04-20T02:06:46.158Z,1026.7
2019-04-20T02:07:44.363Z,1026.65
2019-04-20T02:08:40.023Z,1026.67
2019-04-20T02:09:46.371Z,1026.67
2019-04-20T02:11:42.674Z,1026.64
2019-04-20T02:12:41.127Z,1026.65
2019-04-20T02:13:44.285Z,1026.67
2019-04-20T02:14:45.252Z,1026.65
2019-04-20T02:15:45.045Z,1026.67
2019-04-20T02:16:45.783Z,1026.7
2019-04-20T02:17:59.252Z,1026.72
2019-04-20T02:19:41.204Z,1026.72
2019-04-20T02:21:42.068Z,1026.73
2019-04-20T02:23:24.783Z,1026.73
2019-04-20T02:24:12.742Z,1026.77
2019-04-20T02:25:12.142Z,1026.76
2019-04-20T02:26:12.525Z,1026.8
2019-04-20T02:27:12.554Z,1026.78
2019-04-20T02:28:25.462Z,1026.77
2019-04-20T02:37:23.423Z,1026.74
2019-04-20T02:42:33.733Z,1026.75
2019-04-20T02:45:57.178Z,1026.78
2019-04-20T02:49:00.436Z,1026.74
2019-04-20T02:55:00.139Z,1026.8
2019-04-20T02:58:22.667Z,1026.76
2019-04-20T03:01:26.541Z,1026.75
2019-04-20T03:03:09.847Z,1026.74
2019-04-20T03:04:05.365Z,1026.75
2019-04-20T03:05:23.524Z,1026.78
2019-04-20T03:07:03.564Z,1026.78
2019-04-20T03:09:08.547Z,1026.78
2019-04-20T03:11:46.168Z,1026.76
2019-04-20T03:13:57.684Z,1026.74
2019-04-20T03:15:54.644Z,1026.74
2019-04-20T03:18:13.402Z,1026.74
2019-04-20T03:19:55.448Z,1026.73
2019-04-20T03:22:13.342Z,1026.83
2019-04-20T03:25:22.090Z,1026.83
2019-04-20T03:27:35.418Z,1026.83
2019-04-20T03:29:32.878Z,1026.8
2019-04-20T03:33:30.622Z,1026.81
2019-04-20T03:36:33.381Z,1026.78
2019-04-20T03:39:08.230Z,1026.76
2019-04-20T03:40:50.557Z,1026.75
2019-04-20T03:41:52.377Z,1026.77
2019-04-20T03:42:48.750Z,1026.75
2019-04-20T03:43:49.705Z,1026.79
2019-04-20T03:44:56.222Z,1026.76
2019-04-20T03:45:55.923Z,1026.76
2019-04-20T03:46:55.389Z,1026.8
2019-04-20T03:48:08.911Z,1026.75
2019-04-20T03:50:23.859Z,1026.8
2019-04-20T03:52:42.750Z,1026.78
2019-04-20T03:54:38.526Z,1026.8
2019-04-20T03:56:22.426Z,1026.77
2019-04-20T03:58:37.311Z,1026.72
2019-04-20T04:00:41.067Z,1026.78
2019-04-20T04:03:46.846Z,1026.81
2019-04-20T04:06:54.476Z,1026.77
2019-04-20T04:07:59.738Z,1026.79
2019-04-20T04:09:23.534Z,1026.78
2019-04-20T04:11:11.932Z,1026.77
2019-04-20T04:12:35.546Z,1026.81
2019-04-20T04:13:31.425Z,1026.82
2019-04-20T04:14:30.495Z,1026.82
2019-04-20T04:15:31.625Z,1026.83
2019-04-20T04:16:37.131Z,1026.83
2019-04-20T04:17:35.254Z,1026.88
2019-04-20T04:18:37.147Z,1026.85
2019-04-20T04:19:36.624Z,1026.83
2019-04-20T04:20:37.512Z,1026.83
2019-04-20T04:21:46.673Z,1026.84
2019-04-20T04:23:33.491Z,1026.8
2019-04-20T04:25:07.456Z,1026.83
2019-04-20T04:26:51.018Z,1026.86
2019-04-20T04:28:47.302Z,1026.87
2019-04-20T04:33:45.535Z,1026.87
2019-04-20T04:35:36.071Z,1026.87
2019-04-20T04:37:40.347Z,1026.86
2019-04-20T04:39:52.698Z,1026.89
2019-04-20T04:42:40.884Z,1026.84
2019-04-20T04:44:34.206Z,1026.87
2019-04-20T04:45:23.982Z,1026.89
2019-04-20T04:47:19.802Z,1026.98
2019-04-20T04:48:25.927Z,1026.98
2019-04-20T04:49:28.308Z,1027.01
2019-04-20T04:50:24.609Z,1027.09
2019-04-20T04:51:24.352Z,1027.13
2019-04-20T04:52:28.619Z,1027.08
2019-04-20T04:53:41.456Z,1027.1
2019-04-20T04:54:54.187Z,1027.16
2019-04-20T04:56:03.921Z,1027.17
2019-04-20T04:56:56.938Z,1027.19
2019-04-20T04:57:58.200Z,1027.15
2019-04-20T05:01:04.487Z,1027.25
2019-04-20T05:01:58.366Z,1027.32
2019-04-20T05:03:00.846Z,1027.3
2019-04-20T05:05:17.064Z,1027.41
2019-04-20T05:07:11.103Z,1027.39
2019-04-20T05:08:34.349Z,1027.43
2019-04-20T05:09:27.607Z,1027.51
2019-04-20T05:10:26.701Z,1027.55
2019-04-20T05:11:27.876Z,1027.52
2019-04-20T05:12:29.780Z,1027.55
2019-04-20T05:13:33.867Z,1027.61
2019-04-20T05:14:43.615Z,1027.64
2019-04-20T05:18:05.628Z,1027.67
2019-04-20T05:20:21.371Z,1027.67
2019-04-20T05:22:50.674Z,1027.58
2019-04-20T05:24:33.433Z,1027.52
2019-04-20T05:26:49.195Z,1027.63
2019-04-20T05:29:36.512Z,1027.63
2019-04-20T05:30:42.608Z,1027.66
2019-04-20T05:31:40.300Z,1027.66
2019-04-20T05:32:44.499Z,1027.69
2019-04-20T05:34:19.796Z,1027.69
2019-04-20T05:36:44.523Z,1027.78
2019-04-20T05:39:09.903Z,1027.83
2019-04-20T05:41:21.145Z,1027.9
2019-04-20T05:43:15.041Z,1027.93
2019-04-20T05:45:24.358Z,1027.94
2019-04-20T05:47:16.810Z,1027.9
2019-04-20T05:49:16.882Z,1027.95
2019-04-20T05:51:01.385Z,1028
2019-04-20T05:53:32.186Z,1028.02
2019-04-20T05:55:54.077Z,1028
2019-04-20T05:58:32.561Z,1028.07
2019-04-20T06:00:47.253Z,1028.11
2019-04-20T06:03:05.383Z,1028.13
2019-04-20T06:05:44.750Z,1028.27
2019-04-20T06:07:53.357Z,1028.4
2019-04-20T06:10:49.261Z,1028.53
2019-04-20T06:13:17.131Z,1028.67
2019-04-20T06:14:51.635Z,1028.76
2019-04-20T06:17:01.461Z,1028.77
2019-04-20T06:19:13.944Z,1029
2019-04-20T06:22:09.876Z,1028.94
2019-04-20T06:25:00.695Z,1028.97
2019-04-20T06:27:50.994Z,1028.97
2019-04-20T06:29:55.631Z,1028.94
2019-04-20T06:32:02.170Z,1028.92
2019-04-20T06:34:53.243Z,1028.93
2019-04-20T06:37:28.901Z,1028.96
2019-04-20T06:41:04.825Z,1028.92
2019-04-20T06:43:31.382Z,1028.93
2019-04-20T06:46:34.541Z,1028.86
2019-04-20T06:49:22.202Z,1028.83
2019-04-20T06:51:41.656Z,1028.81
2019-04-20T06:53:46.809Z,1028.74
2019-04-20T06:55:57.126Z,1028.67
2019-04-20T06:58:57.038Z,1028.65
2019-04-20T07:01:24.632Z,1028.58
2019-04-20T07:04:33.165Z,1028.47
2019-04-20T07:07:18.252Z,1028.51
2019-04-20T07:09:52.336Z,1028.45
2019-04-20T07:12:16.620Z,1028.4
2019-04-20T07:13:50.061Z,1028.43
2019-04-20T07:15:16.148Z,1028.23
2019-04-20T07:19:49.696Z,1028
2019-04-20T07:23:10.923Z,1028.03
2019-04-20T07:25:36.957Z,1027.98
2019-04-20T07:28:04.098Z,1028.01
2019-04-20T07:30:44.715Z,1028.03
2019-04-20T07:32:52.018Z,1028.06
2019-04-20T07:35:01.168Z,1028.03
2019-04-20T07:38:08.183Z,1027.99
2019-04-20T07:40:35.344Z,1028.11
2019-04-20T07:43:02.387Z,1028.04
2019-04-20T07:45:36.086Z,1028.06
2019-04-20T07:48:10.710Z,1028.08
2019-04-20T07:50:12.763Z,1028.11
2019-04-20T07:51:26.411Z,1028.02
2019-04-20T07:52:33.652Z,1028.07
2019-04-20T07:54:35.335Z,1028.02
2019-04-20T07:57:14.201Z,1027.98
2019-04-20T07:58:40.983Z,1028.05
2019-04-20T08:00:13.252Z,1028.04
2019-04-20T08:03:08.709Z,1027.96
2019-04-20T08:05:10.493Z,1027.91
2019-04-20T08:06:27.773Z,1027.88
2019-04-20T08:07:35.025Z,1027.9
2019-04-20T08:09:18.974Z,1027.94
2019-04-20T08:10:28.507Z,1027.97
2019-04-20T08:12:49.755Z,1028.06
2019-04-20T08:15:10.806Z,1028.05
2019-04-20T08:18:13.431Z,1028.06
2019-04-20T08:20:19.840Z,1028.03
2019-04-20T08:22:40.774Z,1027.99
2019-04-20T08:24:42.520Z,1027.92
2019-04-20T08:26:05.281Z,1027.89
2019-04-20T08:27:00.991Z,1027.91
2019-04-20T08:27:57.106Z,1027.82
2019-04-20T08:29:02.262Z,1027.85
2019-04-20T08:30:46.220Z,1027.84
2019-04-20T08:32:41.078Z,1027.78
2019-04-20T08:34:57.535Z,1027.78
2019-04-20T08:37:20.490Z,1027.62
2019-04-20T08:40:43.378Z,1027.53
2019-04-20T08:42:55.903Z,1027.56
2019-04-20T08:46:05.091Z,1027.48
2019-04-20T08:49:15.666Z,1027.47
2019-04-20T08:51:49.281Z,1027.4
2019-04-20T08:54:30.914Z,1027.3
2019-04-20T08:57:04.924Z,1027.27
2019-04-20T08:58:04.488Z,1027.24
2019-04-20T08:59:03.927Z,1027.28
2019-04-20T09:00:05.064Z,1027.25
2019-04-20T09:01:06.646Z,1027.25
2019-04-20T09:02:08.928Z,1027.25
2019-04-20T09:03:12.836Z,1027.26
2019-04-20T09:04:18.192Z,1027.27
2019-04-20T09:05:30.130Z,1027.24
2019-04-20T09:07:00.807Z,1027.2
2019-04-20T09:07:56.340Z,1027.25
2019-04-20T09:09:20.536Z,1027.24
2019-04-20T09:11:28.468Z,1027.17
2019-04-20T09:13:15.387Z,1027.19
2019-04-20T09:14:05.814Z,1027.16
2019-04-20T09:15:05.875Z,1027.17
2019-04-20T09:16:04.494Z,1027.1
2019-04-20T09:17:07.749Z,1027.14
2019-04-20T09:18:13.417Z,1027.06
2019-04-20T09:19:12.626Z,1027.11
2019-04-20T09:20:26.889Z,1027.11
2019-04-20T09:21:42.452Z,1027.08
2019-04-20T09:23:12.645Z,1027.08
2019-04-20T09:25:42.372Z,1027.07
2019-04-20T09:27:25.230Z,1027.04
2019-04-20T09:28:37.024Z,1027.04
2019-04-20T09:30:14.822Z,1026.96
2019-04-20T09:31:46.817Z,1026.97
2019-04-20T09:33:50.995Z,1026.95
2019-04-20T09:35:57.537Z,1026.89
2019-04-20T09:37:59.491Z,1026.83
2019-04-20T09:39:30.233Z,1026.81
2019-04-20T09:41:30.229Z,1026.83
2019-04-20T09:42:10.490Z,1026.82
2019-04-20T09:43:10.955Z,1026.76
2019-04-20T09:44:10.985Z,1026.8
2019-04-20T09:45:17.935Z,1026.78
2019-04-20T09:46:11.790Z,1026.76
2019-04-20T09:47:12.210Z,1026.74
2019-04-20T09:48:15.608Z,1026.78
2019-04-20T09:49:23.560Z,1026.83
2019-04-20T09:51:02.129Z,1026.76
2019-04-20T09:52:48.807Z,1026.8
2019-04-20T09:54:25.372Z,1026.8
2019-04-20T09:56:11.559Z,1026.79
2019-04-20T09:58:08.087Z,1026.7
2019-04-20T09:59:57.120Z,1026.7
2019-04-20T10:01:27.986Z,1026.71
2019-04-20T10:02:24.637Z,1026.74
2019-04-20T10:03:22.617Z,1026.7
2019-04-20T10:06:24.648Z,1026.67
2019-04-20T10:07:25.614Z,1026.65
2019-04-20T10:08:21.931Z,1026.72
2019-04-20T10:09:27.753Z,1026.63
2019-04-20T10:10:31.252Z,1026.67
2019-04-20T10:11:21.935Z,1026.67
2019-04-20T10:12:22.038Z,1026.75
2019-04-20T10:13:21.990Z,1026.69
2019-04-20T10:14:22.593Z,1026.68
2019-04-20T10:15:24.821Z,1026.65
2019-04-20T10:16:22.075Z,1026.63
2019-04-20T10:17:23.442Z,1026.64
2019-04-20T10:18:22.132Z,1026.56
2019-04-20T10:19:26.376Z,1026.52
2019-04-20T10:21:23.489Z,1026.56
2019-04-20T10:22:22.527Z,1026.53
2019-04-20T10:23:22.660Z,1026.51
2019-04-20T10:24:22.300Z,1026.55
2019-04-20T10:25:22.591Z,1026.54
2019-04-20T10:26:22.706Z,1026.53
2019-04-20T10:27:22.384Z,1026.51
2019-04-20T10:28:23.440Z,1026.55
2019-04-20T10:29:23.395Z,1026.53
2019-04-20T10:30:22.972Z,1026.49
2019-04-20T10:31:22.496Z,1026.47
2019-04-20T10:32:29.610Z,1026.45
2019-04-20T10:33:23.746Z,1026.49
2019-04-20T10:34:24.061Z,1026.43
2019-04-20T10:35:23.322Z,1026.39
2019-04-20T10:37:23.845Z,1026.41
2019-04-20T10:38:23.284Z,1026.41
2019-04-20T10:39:22.716Z,1026.37
2019-04-20T10:40:37.496Z,1026.39
2019-04-20T10:41:50.270Z,1026.37
2019-04-20T10:42:46.045Z,1026.38
2019-04-20T10:43:45.062Z,1026.42
2019-04-20T10:44:45.174Z,1026.39
2019-04-20T10:45:45.116Z,1026.39
2019-04-20T10:46:45.143Z,1026.4
2019-04-20T10:47:45.310Z,1026.43
2019-04-20T10:48:49.101Z,1026.36
2019-04-20T10:49:45.224Z,1026.34
2019-04-20T10:51:45.278Z,1026.41
2019-04-20T10:52:45.755Z,1026.4
2019-04-20T10:53:46.445Z,1026.4
2019-04-20T10:54:45.366Z,1026.39
2019-04-20T10:55:45.384Z,1026.38
2019-04-20T10:56:45.687Z,1026.34
2019-04-20T10:57:45.841Z,1026.35
2019-04-20T10:58:45.524Z,1026.35
2019-04-20T10:59:45.732Z,1026.36
2019-04-20T11:00:46.025Z,1026.32
2019-04-20T11:01:45.736Z,1026.35
2019-04-20T11:02:47.491Z,1026.35
2019-04-20T11:03:46.787Z,1026.35
2019-04-20T11:04:46.436Z,1026.35
2019-04-20T11:06:46.894Z,1026.24
2019-04-20T11:07:46.316Z,1026.26
2019-04-20T11:08:46.632Z,1026.29
2019-04-20T11:09:46.972Z,1026.26
2019-04-20T11:10:57.778Z,1026.24
2019-04-20T11:11:48.251Z,1026.24
2019-04-20T11:12:48.368Z,1026.24
2019-04-20T11:13:47.634Z,1026.22
2019-04-20T11:14:47.997Z,1026.21
2019-04-20T11:15:48.398Z,1026.19
2019-04-20T11:16:48.434Z,1026.21
2019-04-20T11:17:47.326Z,1026.2
2019-04-20T11:18:47.387Z,1026.18
2019-04-20T11:20:47.402Z,1026.16
2019-04-20T11:21:48.186Z,1026.17
2019-04-20T11:22:48.489Z,1026.17
2019-04-20T11:23:47.478Z,1026.18
2019-04-20T11:24:48.192Z,1026.14
2019-04-20T11:25:48.315Z,1026.15
2019-04-20T11:26:47.555Z,1026.17
2019-04-20T11:27:48.061Z,1026.16
2019-04-20T11:28:48.323Z,1026.13
2019-04-20T11:29:47.631Z,1026.11
2019-04-20T11:30:48.028Z,1026.11
2019-04-20T11:31:51.051Z,1026.09
2019-04-20T11:32:48.405Z,1026.07
2019-04-20T11:33:48.070Z,1026.13
2019-04-20T11:34:49.082Z,1026.06
2019-04-20T11:36:48.872Z,1026.03
2019-04-20T11:37:49.043Z,1026.04
2019-04-20T11:38:49.052Z,1025.97
2019-04-20T11:39:47.893Z,1026.02
2019-04-20T11:40:59.922Z,1025.97
2019-04-20T11:41:47.939Z,1025.97
2019-04-20T11:42:48.010Z,1025.96
2019-04-20T11:43:49.385Z,1025.9
2019-04-20T11:44:48.799Z,1026.08
2019-04-20T11:45:48.876Z,1026
2019-04-20T11:46:48.385Z,1025.96
2019-04-20T11:47:49.460Z,1025.9
2019-04-20T11:48:48.116Z,1025.92
2019-04-20T11:49:49.310Z,1025.9
2019-04-20T11:50:49.468Z,1025.89
2019-04-20T11:52:49.837Z,1025.82
2019-04-20T11:53:48.275Z,1025.86
2019-04-20T11:54:48.557Z,1025.77
2019-04-20T11:55:48.749Z,1025.82
2019-04-20T11:56:49.046Z,1025.78
2019-04-20T11:57:49.368Z,1025.84
2019-04-20T11:58:49.067Z,1025.81
2019-04-20T11:59:48.507Z,1025.85
2019-04-20T12:00:55.941Z,1025.84
2019-04-20T12:01:54.364Z,1025.79
2019-04-20T12:02:51.340Z,1025.75
2019-04-20T12:03:58.124Z,1025.78
2019-04-20T12:05:20.920Z,1025.72
2019-04-20T12:06:10.629Z,1025.77
2019-04-20T12:08:11.157Z,1025.79
2019-04-20T12:09:10.856Z,1025.75
2019-04-20T12:10:15.616Z,1025.72
2019-04-20T12:11:22.550Z,1025.69
2019-04-20T12:12:42.388Z,1025.65
2019-04-20T12:13:38.695Z,1025.64
2019-04-20T12:14:38.830Z,1025.68
2019-04-20T12:15:39.002Z,1025.69
2019-04-20T12:16:39.556Z,1025.66
2019-04-20T12:18:38.785Z,1025.66
2019-04-20T12:19:39.767Z,1025.65
2019-04-20T12:20:39.041Z,1025.6
2019-04-20T12:21:39.122Z,1025.61
2019-04-20T12:22:39.996Z,1025.58
2019-04-20T12:23:40.222Z,1025.57
2019-04-20T12:24:40.260Z,1025.55
2019-04-20T12:25:40.837Z,1025.51
2019-04-20T12:26:38.984Z,1025.55
2019-04-20T12:27:41.007Z,1025.53
2019-04-20T12:28:40.043Z,1025.57
2019-04-20T12:29:39.061Z,1025.5
2019-04-20T12:30:39.706Z,1025.51
2019-04-20T12:31:39.761Z,1025.51
2019-04-20T12:32:42.778Z,1025.47
2019-04-20T12:34:39.311Z,1025.42
2019-04-20T12:35:40.314Z,1025.45
2019-04-20T12:36:39.502Z,1025.35
2019-04-20T12:37:39.262Z,1025.33
2019-04-20T12:38:39.287Z,1025.43
2019-04-20T12:39:39.473Z,1025.35
2019-04-20T12:40:39.913Z,1025.39
2019-04-20T12:41:44.822Z,1025.39
2019-04-20T12:42:39.388Z,1025.35
2019-04-20T12:43:39.414Z,1025.32
2019-04-20T12:44:39.653Z,1025.28
2019-04-20T12:45:39.953Z,1025.29
2019-04-20T12:46:39.488Z,1025.32
2019-04-20T12:47:39.650Z,1025.24
2019-04-20T12:48:39.710Z,1025.21
2019-04-20T12:50:39.659Z,1025.23
2019-04-20T12:51:45.347Z,1025.19
2019-04-20T12:52:40.678Z,1025.21
2019-04-20T12:53:40.526Z,1025.19
2019-04-20T12:54:41.540Z,1025.22
2019-04-20T12:55:40.877Z,1025.19
2019-04-20T12:56:40.428Z,1025.19
2019-04-20T12:57:40.631Z,1025.15
2019-04-20T12:58:43.067Z,1025.14
2019-04-20T12:59:42.522Z,1025.16
2019-04-20T13:00:39.838Z,1025.1
2019-04-20T13:01:39.864Z,1025.07
2019-04-20T13:02:41.088Z,1025.08
2019-04-20T13:03:39.914Z,1025.1
2019-04-20T13:05:40.225Z,1025.07
2019-04-20T13:06:40.865Z,1025.06
2019-04-20T13:07:44.709Z,1025.07
2019-04-20T13:08:44.346Z,1025.09
2019-04-20T13:09:40.870Z,1025.03
2019-04-20T13:10:40.217Z,1025.02
2019-04-20T13:11:49.327Z,1025.01
2019-04-20T13:12:40.641Z,1025
2019-04-20T13:13:40.787Z,1025.02
2019-04-20T13:14:40.207Z,1025.02
2019-04-20T13:15:40.560Z,1024.96
2019-04-20T13:16:40.589Z,1024.97
2019-04-20T13:17:40.265Z,1024.99
2019-04-20T13:18:41.209Z,1025.03
2019-04-20T13:19:41.508Z,1024.97
2019-04-20T13:20:41.764Z,1024.99
2019-04-20T13:21:40.957Z,1025
2019-04-20T13:22:41.133Z,1025
2019-04-20T13:23:40.675Z,1024.98
2019-04-20T13:24:40.977Z,1024.97
2019-04-20T13:25:41.194Z,1024.92
2019-04-20T13:26:40.699Z,1024.9
2019-04-20T13:27:40.907Z,1024.94
2019-04-20T13:28:41.205Z,1024.9
2019-04-20T13:29:40.620Z,1024.89
2019-04-20T13:30:41.879Z,1024.91
2019-04-20T13:31:41.737Z,1024.9
2019-04-20T13:32:41.524Z,1024.87
2019-04-20T13:33:41.175Z,1024.93
2019-04-20T13:34:40.687Z,1024.86
2019-04-20T13:35:40.718Z,1024.84
2019-04-20T13:37:42.189Z,1024.84
2019-04-20T13:38:40.787Z,1024.81
2019-04-20T13:39:40.896Z,1024.86
2019-04-20T13:40:41.763Z,1024.84
2019-04-20T13:41:42.098Z,1024.82
2019-04-20T13:42:41.468Z,1024.8
2019-04-20T13:43:41.823Z,1024.93
2019-04-20T13:44:41.125Z,1024.78
2019-04-20T13:45:40.962Z,1024.72
2019-04-20T13:46:40.993Z,1024.77
2019-04-20T13:47:41.102Z,1024.79
2019-04-20T13:48:41.036Z,1024.73
2019-04-20T13:49:41.061Z,1024.7
2019-04-20T13:50:42.239Z,1024.69
2019-04-20T13:51:41.110Z,1024.65
2019-04-20T13:53:41.356Z,1024.57
2019-04-20T13:54:41.902Z,1024.54
2019-04-20T13:55:41.211Z,1024.71
2019-04-20T13:56:41.740Z,1024.62
2019-04-20T13:57:42.002Z,1024.63
2019-04-20T13:58:41.283Z,1024.57
2019-04-20T13:59:41.926Z,1024.59
2019-04-20T14:00:41.333Z,1024.59
2019-04-20T14:01:41.357Z,1024.52
2019-04-20T14:02:42.385Z,1024.57
2019-04-20T14:03:42.692Z,1024.52
2019-04-20T14:04:41.434Z,1024.51
2019-04-20T14:05:42.579Z,1024.52
2019-04-20T14:06:41.528Z,1024.46
2019-04-20T14:07:41.762Z,1024.47
2019-04-20T14:09:41.659Z,1024.43
2019-04-20T14:10:41.791Z,1024.4
2019-04-20T14:11:41.604Z,1024.36
2019-04-20T14:12:52.311Z,1024.37
2019-04-20T14:13:54.598Z,1024.36
2019-04-20T14:14:47.360Z,1024.31
2019-04-20T14:15:47.383Z,1024.31
2019-04-20T14:16:47.452Z,1024.3
2019-04-20T14:17:47.433Z,1024.28
2019-04-20T14:18:47.458Z,1024.33
2019-04-20T14:19:47.541Z,1024.3
2019-04-20T14:20:47.904Z,1024.3
2019-04-20T14:21:48.115Z,1024.25
2019-04-20T14:22:47.557Z,1024.27
2019-04-20T14:23:48.606Z,1024.24
2019-04-20T14:24:48.886Z,1024.24
2019-04-20T14:25:48.837Z,1024.21
2019-04-20T14:27:48.695Z,1024.21
2019-04-20T14:28:48.857Z,1024.2
2019-04-20T14:29:48.704Z,1024.16
2019-04-20T14:30:47.893Z,1024.15
2019-04-20T14:31:48.046Z,1024.18
2019-04-20T14:32:48.160Z,1024.16
2019-04-20T14:33:48.760Z,1024.15
2019-04-20T14:34:49.006Z,1024.08
2019-04-20T14:35:48.369Z,1024.07
2019-04-20T14:36:48.788Z,1024.13
2019-04-20T14:37:47.926Z,1024.13
2019-04-20T14:38:48.699Z,1024.11
2019-04-20T14:39:48.080Z,1024.1
2019-04-20T14:40:48.351Z,1024.05
2019-04-20T14:41:48.598Z,1024.1
2019-04-20T14:43:48.939Z,1024.01
2019-04-20T14:44:48.100Z,1024
2019-04-20T14:45:48.125Z,1023.98
2019-04-20T14:46:49.591Z,1023.96
2019-04-20T14:47:48.174Z,1023.96
2019-04-20T14:48:49.000Z,1024
2019-04-20T14:49:48.576Z,1023.94
2019-04-20T14:50:49.632Z,1023.99
2019-04-20T14:51:48.273Z,1024.01
2019-04-20T14:52:49.309Z,1023.97
2019-04-20T14:53:49.479Z,1023.93
2019-04-20T14:54:49.477Z,1023.98
2019-04-20T14:55:49.289Z,1023.91
2019-04-20T14:56:49.532Z,1023.98
2019-04-20T14:58:49.277Z,1023.91
2019-04-20T14:59:49.532Z,1023.88
2019-04-20T15:00:51.653Z,1023.91
2019-04-20T15:01:48.522Z,1023.91
2019-04-20T15:02:48.545Z,1023.9
2019-04-20T15:03:55.556Z,1023.86
2019-04-20T15:04:50.238Z,1023.86
2019-04-20T15:05:48.831Z,1023.83
2019-04-20T15:06:48.758Z,1023.85
2019-04-20T15:07:48.859Z,1023.83
2019-04-20T15:08:48.692Z,1023.81
2019-04-20T15:09:48.836Z,1023.84
2019-04-20T15:10:49.066Z,1023.88
2019-04-20T15:11:48.765Z,1023.83
2019-04-20T15:12:55.699Z,1023.84
2019-04-20T15:13:48.991Z,1023.76
2019-04-20T15:14:50.299Z,1023.81
2019-04-20T15:15:48.864Z,1023.82
2019-04-20T15:16:48.889Z,1023.85
2019-04-20T15:17:48.912Z,1023.81
2019-04-20T15:18:51.295Z,1023.75
2019-04-20T15:19:49.556Z,1023.81
2019-04-20T15:20:48.987Z,1023.78
2019-04-20T15:21:49.445Z,1023.79
2019-04-20T15:22:49.777Z,1023.78
2019-04-20T15:23:49.060Z,1023.71
2019-04-20T15:24:49.415Z,1023.79
2019-04-20T15:25:50.311Z,1023.75
2019-04-20T15:26:49.133Z,1023.75
2019-04-20T15:27:50.035Z,1023.79
2019-04-20T15:28:50.373Z,1023.78
2019-04-20T15:30:49.960Z,1023.75
2019-04-20T15:31:50.098Z,1023.75
2019-04-20T15:32:49.330Z,1023.74
2019-04-20T15:33:50.740Z,1023.69
2019-04-20T15:34:49.329Z,1023.76
2019-04-20T15:35:50.317Z,1023.76
2019-04-20T15:36:49.824Z,1023.72
2019-04-20T15:37:49.402Z,1023.71
2019-04-20T15:38:49.458Z,1023.7
2019-04-20T15:39:50.420Z,1023.71
2019-04-20T15:40:49.475Z,1023.67
2019-04-20T15:41:49.619Z,1023.67
2019-04-20T15:42:58.757Z,1023.65
2019-04-20T15:43:49.549Z,1023.64
2019-04-20T15:44:49.574Z,1023.67
2019-04-20T15:46:50.971Z,1023.65
2019-04-20T15:47:50.052Z,1023.7
2019-04-20T15:48:50.204Z,1023.65
2019-04-20T15:49:49.871Z,1023.67
2019-04-20T15:50:49.910Z,1023.66
2019-04-20T15:51:50.039Z,1023.68
2019-04-20T15:52:52.628Z,1023.66
2019-04-20T15:53:49.794Z,1023.61
2019-04-20T15:54:49.817Z,1023.6
2019-04-20T15:55:50.834Z,1023.61
2019-04-20T15:56:56.814Z,1023.55
2019-04-20T15:57:50.430Z,1023.62
2019-04-20T15:58:50.420Z,1023.6
2019-04-20T15:59:50.589Z,1023.65
2019-04-20T16:00:51.260Z,1023.57
2019-04-20T16:02:51.127Z,1023.54
2019-04-20T16:03:51.062Z,1023.56
2019-04-20T16:04:50.635Z,1023.61
2019-04-20T16:05:51.354Z,1023.51
2019-04-20T16:06:50.499Z,1023.53
2019-04-20T16:07:53.001Z,1023.54
2019-04-20T16:08:50.345Z,1023.54
2019-04-20T16:09:50.449Z,1023.53
2019-04-20T16:10:50.908Z,1023.52
2019-04-20T16:11:50.822Z,1023.49
2019-04-20T16:13:03.370Z,1023.53
2019-04-20T16:13:53.671Z,1023.43
2019-04-20T16:14:51.328Z,1023.48
2019-04-20T16:15:51.348Z,1023.5
2019-04-20T16:16:50.717Z,1023.49
2019-04-20T16:18:50.735Z,1023.47
2019-04-20T16:19:56.960Z,1023.43
2019-04-20T16:20:57.821Z,1023.44
2019-04-20T16:21:51.871Z,1023.44
2019-04-20T16:22:52.034Z,1023.45
2019-04-20T16:23:52.455Z,1023.43
2019-04-20T16:24:51.659Z,1023.44
2019-04-20T16:25:51.058Z,1023.41
2019-04-20T16:27:51.819Z,1023.42
2019-04-20T16:28:51.131Z,1023.41
2019-04-20T16:29:51.597Z,1023.43
2019-04-20T16:30:51.678Z,1023.43
2019-04-20T16:31:52.137Z,1023.41
2019-04-20T16:32:52.213Z,1023.38
2019-04-20T16:33:53.838Z,1023.36
2019-04-20T16:34:52.475Z,1023.38
2019-04-20T16:35:52.312Z,1023.34
2019-04-20T16:36:53.290Z,1023.28
2019-04-20T16:37:52.635Z,1023.3
2019-04-20T16:38:51.372Z,1023.3
2019-04-20T16:39:52.422Z,1023.39
2019-04-20T16:40:52.523Z,1023.29
2019-04-20T16:41:51.445Z,1023.26
2019-04-20T16:43:51.670Z,1023.31
2019-04-20T16:44:51.521Z,1023.33
2019-04-20T16:45:51.813Z,1023.33